Meteo Giornale » Osservazioni meteo Italia » Torino-Caselle

ore: 18:20 - Osservazioni Meteo Torino-Caselle
Lat. 45° 13' N Lon. 7° 39' E Alt. 301 metri s.l.m.

sereno Europe/Rome

20 °C

Sereno

Temp. 24 Ore

9 °C

23 °C

Sud-Est

20.3 Km/h

Dew point -5 °C

Umidità 18 %

Visibilità  10 Km

Il sole sorge alle ore 07:55

Il sole tramonta alle ore 18:31

Data e Ora Cielo e Fenomeni T °C DP °C Um. % Pres. hPa Vis. km Vento km/h
Oggi h: 18:20 sereno Sereno 20 -5 18 1015 10 SE 20.3
Oggi h: 17:50 sereno Sereno 21 -5 16 1015 10 SE 14.8
Oggi h: 17:20 sereno Sereno 22 -7 13 1014 10 SE 13
Oggi h: 16:50 sereno Sereno 23 -7 12 1014 10 E/SE 11.1
Oggi h: 16:20 sereno Sereno 23 -9 11 1014 10 E 11.1
Oggi h: 15:50 sereno Sereno 22 -7 13 1014 10 E/SE 11.1
Oggi h: 15:20 sereno Sereno 22 -7 13 1013 10 SE 11.1
Oggi h: 14:50 sereno Sereno 23 -10 10 1013 10 N 3.7
Oggi h: 14:20 sereno Sereno 23 -9 11 1014 10 O 13
Oggi h: 13:50 sereno Sereno 22 -9 11 1014 10 O/NO 20.3
Oggi h: 13:20 sereno Sereno 22 -9 11 1014 10 N 11.1
Oggi h: 12:50 sereno Sereno 20 -5 18 1014 10 N 5.5
Oggi h: 12:20 sereno Sereno 19 -6 17 1014 10 N 5.5
Oggi h: 11:50 sereno Sereno 19 -4 20 1014 10 N 5.5
Oggi h: 11:20 sereno Sereno 17 -4 23 1015 10 E/SE 11.1
Oggi h: 10:50 sereno Sereno 16 -4 24 1015 10 SE 11.1
Oggi h: 10:20 sereno Sereno 16 -5 23 1015 10 N 5.5
Oggi h: 09:50 sereno Sereno 15 -5 24 1015 10 N 5.5
Oggi h: 09:20 sereno Sereno 13 -6 26 1015 10 N 5.5
Oggi h: 08:50 sereno Sereno 12 -7 25 1015 10 N 9.3
Oggi h: 08:20 sereno Sereno 13 -8 22 1014 10 N 7.4
Oggi h: 07:50 sereno Sereno 9 -7 31 1014 10 N 5.5
Oggi h: 07:20 sereno Sereno 9 -6 33 1014 10 NE 9.3
Oggi h: 06:50 sereno Sereno 11 -8 25 1014 10 N 5.5
Oggi h: 06:20 sereno Sereno 10 -7 29 1014 10 E 11.1
Oggi h: 05:50 sereno Sereno 13 -8 22 1014 10 N 5.5
Oggi h: 05:20 sereno Sereno 13 -8 22 1014 10 N 5.5
Oggi h: 04:50 sereno Sereno 14 -8 20 1014 10 SO 14.8
Oggi h: 04:20 sereno Sereno 15 -9 18 1014 10 O/SO 16.7
Oggi h: 03:50 sereno Sereno 15 -9 18 1014 10 O 14.8
Oggi h: 03:20 sereno Sereno 14 -9 19 1014 10 N 5.5
Oggi h: 02:50 sereno Sereno 12 -8 23 1014 10 E/SE 7.4
Oggi h: 01:50 sereno Sereno 14 -9 19 1014 10 N 5.5
Oggi h: 01:20 sereno Sereno 16 -10 15 1014 10 O 16.7
Oggi h: 00:50 sereno Sereno 16 -10 15 1013 10 NO 22.2
Oggi h: 00:20 sereno Sereno 15 -10 16 1013 10 O 11.1
Ieri h: 23:50 sereno Sereno 15 -8 19 1013 10 O/SO 14.8
Ieri h: 23:20 sereno Sereno 17 -10 14 1013 10 O/NO 24
Ieri h: 22:50 sereno Sereno 16 -8 18 1013 10 N/NO 14.8
Ieri h: 22:20 sereno Sereno 16 -8 18 1013 10 N 5.5
Ieri h: 21:50 sereno Sereno 16 -9 17 1013 10 N 3.7
Ieri h: 21:20 sereno Sereno 16 -10 15 1012 10 N 13
Ieri h: 20:50 sereno Sereno 17 -11 13 1012 10 O 24
Ieri h: 19:50 sereno Sereno 17 -9 15 1012 10 O 27.8
Ieri h: 19:20 sereno Sereno 17 -9 15 1012 10 O 29.6
Ieri h: 18:50 sereno Sereno 17 -8 17 1012 10 O 33.3